EHAM/AMS METAR and TAF weather

Enter ICAO airport designator
Station Type Date Time Source
EHAM METAR 2019/06/17 13:25 UTC NOAA

EHAM 171325Z 30005KT 230V360 9999 FEW045 23/15 Q1018 NOSIG


Station Type Date Time Source
EHAM Decoded METAR 2019/06/17 13:25 UTC NOAA

Amsterdam Airport Schiphol, Netherlands (EHAM) 52-18N 004-46E -2M
Jun 17, 2019 - 09:25 AM EDT / 2019.06.17 1325 UTC
Wind: from the WNW (300 degrees) at 6 MPH (5 KT) (direction variable):0
Visibility: greater than 7 mile(s):0
Sky conditions: mostly clear
Temperature: 73 F (23 C)
Dew Point: 59 F (15 C)
Relative Humidity: 60%
Pressure (altimeter): 30.06 in. Hg (1018 hPa)
ob: EHAM 171325Z 30005KT 230V360 9999 FEW045 23/15 Q1018 NOSIG
cycle: 13

Station Type Date Time Source
EHAM TAF 2019/06/17 12:28 UTC NOAA

TAF EHAM 171055Z 1712/1818 19012KT 9999 SCT035
BECMG 1714/1717 31007KT
BECMG 1719/1722 VRB03KT CAVOK
BECMG 1815/1818 06008KT

Example: see airport list